sensor_id;sensor_type;location;lat;lon;timestamp;temperature;humidity
29501;DHT22;16450;50.288;10.966;2023-08-12T00:01:09;19.60;96.90
29501;DHT22;16450;50.288;10.966;2023-08-12T00:04:11;19.50;96.90
29501;DHT22;16450;50.288;10.966;2023-08-12T00:07:16;19.50;96.90
29501;DHT22;16450;50.288;10.966;2023-08-12T00:10:18;19.50;97.00
29501;DHT22;16450;50.288;10.966;2023-08-12T00:13:20;19.50;97.00
29501;DHT22;16450;50.288;10.966;2023-08-12T00:16:22;19.40;97.00
29501;DHT22;16450;50.288;10.966;2023-08-12T00:19:24;19.40;97.10
29501;DHT22;16450;50.288;10.966;2023-08-12T00:22:26;19.40;97.20
29501;DHT22;16450;50.288;10.966;2023-08-12T00:25:28;19.30;97.20
29501;DHT22;16450;50.288;10.966;2023-08-12T00:28:30;19.40;97.20
29501;DHT22;16450;50.288;10.966;2023-08-12T00:31:32;19.30;97.20
29501;DHT22;16450;50.288;10.966;2023-08-12T00:34:34;19.30;97.30
29501;DHT22;16450;50.288;10.966;2023-08-12T00:37:36;19.20;97.30
29501;DHT22;16450;50.288;10.966;2023-08-12T00:40:38;19.10;97.30
29501;DHT22;16450;50.288;10.966;2023-08-12T00:43:39;19.10;97.40
29501;DHT22;16450;50.288;10.966;2023-08-12T00:46:42;19.10;97.50
29501;DHT22;16450;50.288;10.966;2023-08-12T00:49:45;19.10;97.60
29501;DHT22;16450;50.288;10.966;2023-08-12T00:52:48;19.00;97.50
29501;DHT22;16450;50.288;10.966;2023-08-12T00:55:51;19.00;97.50
29501;DHT22;16450;50.288;10.966;2023-08-12T00:58:53;19.00;97.60
29501;DHT22;16450;50.288;10.966;2023-08-12T01:01:55;18.90;97.80
29501;DHT22;16450;50.288;10.966;2023-08-12T01:04:58;18.90;97.80
29501;DHT22;16450;50.288;10.966;2023-08-12T01:08:00;18.90;97.90
29501;DHT22;16450;50.288;10.966;2023-08-12T01:11:21;18.80;97.90
29501;DHT22;16450;50.288;10.966;2023-08-12T01:14:34;18.80;97.90
29501;DHT22;16450;50.288;10.966;2023-08-12T01:17:41;18.80;97.90
29501;DHT22;16450;50.288;10.966;2023-08-12T01:20:43;18.80;98.00
29501;DHT22;16450;50.288;10.966;2023-08-12T01:23:45;18.80;98.20
29501;DHT22;16450;50.288;10.966;2023-08-12T01:26:48;18.70;98.20
29501;DHT22;16450;50.288;10.966;2023-08-12T01:29:52;18.70;98.20
29501;DHT22;16450;50.288;10.966;2023-08-12T01:33:37;18.70;98.20
29501;DHT22;16450;50.288;10.966;2023-08-12T01:36:44;18.70;98.00
29501;DHT22;16450;50.288;10.966;2023-08-12T01:39:48;18.70;98.30
29501;DHT22;16450;50.288;10.966;2023-08-12T01:42:50;18.60;98.50
29501;DHT22;16450;50.288;10.966;2023-08-12T01:45:53;18.60;98.60
29501;DHT22;16450;50.288;10.966;2023-08-12T01:48:55;18.60;98.60
29501;DHT22;16450;50.288;10.966;2023-08-12T01:51:57;18.60;98.60
29501;DHT22;16450;50.288;10.966;2023-08-12T01:54:59;18.60;98.60
29501;DHT22;16450;50.288;10.966;2023-08-12T01:58:01;18.60;98.60
29501;DHT22;16450;50.288;10.966;2023-08-12T02:01:03;18.60;98.70
29501;DHT22;16450;50.288;10.966;2023-08-12T02:04:05;18.70;98.70
29501;DHT22;16450;50.288;10.966;2023-08-12T02:07:06;18.60;98.80
29501;DHT22;16450;50.288;10.966;2023-08-12T02:10:09;18.60;98.80
29501;DHT22;16450;50.288;10.966;2023-08-12T02:13:11;18.60;98.80
29501;DHT22;16450;50.288;10.966;2023-08-12T02:16:13;18.50;98.80
29501;DHT22;16450;50.288;10.966;2023-08-12T02:19:15;18.60;98.90
29501;DHT22;16450;50.288;10.966;2023-08-12T02:22:17;18.50;98.90
29501;DHT22;16450;50.288;10.966;2023-08-12T02:25:18;18.50;98.90
29501;DHT22;16450;50.288;10.966;2023-08-12T02:28:20;18.50;99.00
29501;DHT22;16450;50.288;10.966;2023-08-12T02:31:22;18.50;99.00
29501;DHT22;16450;50.288;10.966;2023-08-12T02:34:24;18.40;99.00
29501;DHT22;16450;50.288;10.966;2023-08-12T02:37:25;18.40;99.00
29501;DHT22;16450;50.288;10.966;2023-08-12T02:40:28;18.30;99.00
29501;DHT22;16450;50.288;10.966;2023-08-12T02:43:30;18.40;99.10
29501;DHT22;16450;50.288;10.966;2023-08-12T02:46:31;18.30;99.10
29501;DHT22;16450;50.288;10.966;2023-08-12T02:49:33;18.30;99.10
29501;DHT22;16450;50.288;10.966;2023-08-12T02:52:35;18.30;99.30
29501;DHT22;16450;50.288;10.966;2023-08-12T02:55:37;18.20;99.30
29501;DHT22;16450;50.288;10.966;2023-08-12T02:58:39;18.30;99.40
29501;DHT22;16450;50.288;10.966;2023-08-12T03:01:42;18.20;99.30
29501;DHT22;16450;50.288;10.966;2023-08-12T03:04:44;18.20;99.30
29501;DHT22;16450;50.288;10.966;2023-08-12T03:07:46;18.20;99.30
29501;DHT22;16450;50.288;10.966;2023-08-12T03:10:48;18.10;99.30
29501;DHT22;16450;50.288;10.966;2023-08-12T03:13:49;18.10;99.30
29501;DHT22;16450;50.288;10.966;2023-08-12T03:16:51;18.10;99.60
29501;DHT22;16450;50.288;10.966;2023-08-12T03:19:53;18.00;99.40
29501;DHT22;16450;50.288;10.966;2023-08-12T03:22:58;18.00;99.50
29501;DHT22;16450;50.288;10.966;2023-08-12T03:26:01;18.10;99.60
29501;DHT22;16450;50.288;10.966;2023-08-12T03:29:04;17.90;99.50
29501;DHT22;16450;50.288;10.966;2023-08-12T03:32:06;17.90;99.60
29501;DHT22;16450;50.288;10.966;2023-08-12T03:35:08;17.90;99.70
29501;DHT22;16450;50.288;10.966;2023-08-12T03:38:10;17.80;99.80
29501;DHT22;16450;50.288;10.966;2023-08-12T03:41:13;17.90;99.80
29501;DHT22;16450;50.288;10.966;2023-08-12T03:44:15;17.80;99.80
29501;DHT22;16450;50.288;10.966;2023-08-12T03:47:17;17.80;99.80
29501;DHT22;16450;50.288;10.966;2023-08-12T03:50:23;17.80;99.90
29501;DHT22;16450;50.288;10.966;2023-08-12T03:53:25;17.80;99.90
29501;DHT22;16450;50.288;10.966;2023-08-12T03:56:27;17.70;99.90
29501;DHT22;16450;50.288;10.966;2023-08-12T03:59:29;17.70;99.90
29501;DHT22;16450;50.288;10.966;2023-08-12T04:02:31;17.70;99.90
29501;DHT22;16450;50.288;10.966;2023-08-12T04:05:34;17.70;99.90
29501;DHT22;16450;50.288;10.966;2023-08-12T04:08:36;17.60;99.90
29501;DHT22;16450;50.288;10.966;2023-08-12T04:11:38;17.60;99.90
29501;DHT22;16450;50.288;10.966;2023-08-12T04:14:40;17.70;99.90
29501;DHT22;16450;50.288;10.966;2023-08-12T04:17:42;17.70;99.90
29501;DHT22;16450;50.288;10.966;2023-08-12T04:20:51;17.70;99.90
29501;DHT22;16450;50.288;10.966;2023-08-12T04:23:53;17.70;99.90
29501;DHT22;16450;50.288;10.966;2023-08-12T04:26:55;17.70;99.90
29501;DHT22;16450;50.288;10.966;2023-08-12T04:29:57;17.70;99.90
29501;DHT22;16450;50.288;10.966;2023-08-12T04:32:59;17.70;99.90
29501;DHT22;16450;50.288;10.966;2023-08-12T04:36:01;17.70;99.90
29501;DHT22;16450;50.288;10.966;2023-08-12T04:39:03;17.70;99.90
29501;DHT22;16450;50.288;10.966;2023-08-12T04:42:06;17.80;99.90
29501;DHT22;16450;50.288;10.966;2023-08-12T04:45:08;17.80;99.90
29501;DHT22;16450;50.288;10.966;2023-08-12T04:48:10;17.80;99.90
29501;DHT22;16450;50.288;10.966;2023-08-12T04:51:12;17.80;99.90
29501;DHT22;16450;50.288;10.966;2023-08-12T04:54:16;17.90;99.90
29501;DHT22;16450;50.288;10.966;2023-08-12T04:57:17;18.00;99.90
29501;DHT22;16450;50.288;10.966;2023-08-12T05:00:20;18.00;99.90
29501;DHT22;16450;50.288;10.966;2023-08-12T05:03:22;18.10;99.90
29501;DHT22;16450;50.288;10.966;2023-08-12T05:06:24;18.20;99.90
29501;DHT22;16450;50.288;10.966;2023-08-12T05:09:26;18.30;99.90
29501;DHT22;16450;50.288;10.966;2023-08-12T05:12:28;18.30;99.90
29501;DHT22;16450;50.288;10.966;2023-08-12T05:15:30;18.30;99.90
29501;DHT22;16450;50.288;10.966;2023-08-12T05:18:32;18.40;99.90
29501;DHT22;16450;50.288;10.966;2023-08-12T05:21:34;18.40;99.90
29501;DHT22;16450;50.288;10.966;2023-08-12T05:24:36;18.50;99.90
29501;DHT22;16450;50.288;10.966;2023-08-12T05:27:38;18.50;99.90
29501;DHT22;16450;50.288;10.966;2023-08-12T05:30:40;18.50;99.90
29501;DHT22;16450;50.288;10.966;2023-08-12T05:33:42;18.60;99.90
29501;DHT22;16450;50.288;10.966;2023-08-12T05:36:44;18.60;99.90
29501;DHT22;16450;50.288;10.966;2023-08-12T05:39:46;18.60;99.90
29501;DHT22;16450;50.288;10.966;2023-08-12T05:42:49;18.60;99.90
29501;DHT22;16450;50.288;10.966;2023-08-12T05:45:51;18.70;99.90
29501;DHT22;16450;50.288;10.966;2023-08-12T05:48:53;18.70;99.90
29501;DHT22;16450;50.288;10.966;2023-08-12T05:51:55;18.70;99.90
29501;DHT22;16450;50.288;10.966;2023-08-12T05:54:57;18.80;99.90
29501;DHT22;16450;50.288;10.966;2023-08-12T05:57:59;18.80;99.90
29501;DHT22;16450;50.288;10.966;2023-08-12T06:01:00;18.80;99.90
29501;DHT22;16450;50.288;10.966;2023-08-12T06:04:02;18.90;99.90
29501;DHT22;16450;50.288;10.966;2023-08-12T06:07:04;18.90;99.90
29501;DHT22;16450;50.288;10.966;2023-08-12T06:10:06;19.00;99.90
29501;DHT22;16450;50.288;10.966;2023-08-12T06:13:09;19.10;99.90
29501;DHT22;16450;50.288;10.966;2023-08-12T06:16:11;19.10;99.90
29501;DHT22;16450;50.288;10.966;2023-08-12T06:19:13;19.20;99.90
29501;DHT22;16450;50.288;10.966;2023-08-12T06:22:15;19.20;99.90
29501;DHT22;16450;50.288;10.966;2023-08-12T06:25:17;19.20;99.90
29501;DHT22;16450;50.288;10.966;2023-08-12T06:28:21;19.30;99.90
29501;DHT22;16450;50.288;10.966;2023-08-12T06:31:23;19.30;99.90
29501;DHT22;16450;50.288;10.966;2023-08-12T06:34:25;19.30;99.90
29501;DHT22;16450;50.288;10.966;2023-08-12T06:37:30;19.40;99.90
29501;DHT22;16450;50.288;10.966;2023-08-12T06:40:32;19.40;99.90
29501;DHT22;16450;50.288;10.966;2023-08-12T06:43:33;19.40;99.90
29501;DHT22;16450;50.288;10.966;2023-08-12T06:46:36;19.50;99.90
29501;DHT22;16450;50.288;10.966;2023-08-12T06:49:38;19.50;99.90
29501;DHT22;16450;50.288;10.966;2023-08-12T06:52:40;19.60;99.90
29501;DHT22;16450;50.288;10.966;2023-08-12T06:55:45;19.60;99.90
29501;DHT22;16450;50.288;10.966;2023-08-12T06:58:47;19.60;99.90
29501;DHT22;16450;50.288;10.966;2023-08-12T07:01:49;19.70;99.90
29501;DHT22;16450;50.288;10.966;2023-08-12T07:04:52;19.70;99.90
29501;DHT22;16450;50.288;10.966;2023-08-12T07:07:54;19.70;99.90
29501;DHT22;16450;50.288;10.966;2023-08-12T07:10:56;19.70;99.90
29501;DHT22;16450;50.288;10.966;2023-08-12T07:13:58;19.80;99.90
29501;DHT22;16450;50.288;10.966;2023-08-12T07:17:00;19.80;99.90
29501;DHT22;16450;50.288;10.966;2023-08-12T07:20:02;19.90;99.90
29501;DHT22;16450;50.288;10.966;2023-08-12T07:23:06;20.00;99.90
29501;DHT22;16450;50.288;10.966;2023-08-12T07:26:08;20.10;99.90
29501;DHT22;16450;50.288;10.966;2023-08-12T07:29:10;20.10;99.90
29501;DHT22;16450;50.288;10.966;2023-08-12T07:32:12;20.20;99.90
29501;DHT22;16450;50.288;10.966;2023-08-12T07:35:15;20.20;99.90
29501;DHT22;16450;50.288;10.966;2023-08-12T07:38:17;20.30;99.90
29501;DHT22;16450;50.288;10.966;2023-08-12T07:41:19;20.30;99.90
29501;DHT22;16450;50.288;10.966;2023-08-12T07:44:21;20.30;99.90
29501;DHT22;16450;50.288;10.966;2023-08-12T07:47:23;20.40;99.90
29501;DHT22;16450;50.288;10.966;2023-08-12T07:50:25;20.40;99.90
29501;DHT22;16450;50.288;10.966;2023-08-12T07:53:27;20.60;99.90
29501;DHT22;16450;50.288;10.966;2023-08-12T07:56:29;20.80;99.90
29501;DHT22;16450;50.288;10.966;2023-08-12T07:59:31;21.00;99.90
29501;DHT22;16450;50.288;10.966;2023-08-12T08:02:33;21.20;99.90
29501;DHT22;16450;50.288;10.966;2023-08-12T08:05:35;21.50;99.90
29501;DHT22;16450;50.288;10.966;2023-08-12T08:08:37;21.60;99.90
29501;DHT22;16450;50.288;10.966;2023-08-12T08:11:39;21.70;99.90
29501;DHT22;16450;50.288;10.966;2023-08-12T08:14:41;21.80;99.90
29501;DHT22;16450;50.288;10.966;2023-08-12T08:17:43;21.80;99.90
29501;DHT22;16450;50.288;10.966;2023-08-12T08:20:45;21.80;99.90
29501;DHT22;16450;50.288;10.966;2023-08-12T08:23:48;21.70;99.90
29501;DHT22;16450;50.288;10.966;2023-08-12T08:26:50;21.70;99.90
29501;DHT22;16450;50.288;10.966;2023-08-12T08:29:52;21.60;99.90
29501;DHT22;16450;50.288;10.966;2023-08-12T08:32:54;21.40;99.90
29501;DHT22;16450;50.288;10.966;2023-08-12T08:35:56;21.50;99.90
29501;DHT22;16450;50.288;10.966;2023-08-12T08:38:58;21.40;99.90
29501;DHT22;16450;50.288;10.966;2023-08-12T08:42:03;21.40;99.90
29501;DHT22;16450;50.288;10.966;2023-08-12T08:45:12;21.40;99.90
29501;DHT22;16450;50.288;10.966;2023-08-12T08:48:14;21.40;99.90
29501;DHT22;16450;50.288;10.966;2023-08-12T08:51:20;21.40;99.90
29501;DHT22;16450;50.288;10.966;2023-08-12T08:54:24;21.40;99.90
29501;DHT22;16450;50.288;10.966;2023-08-12T08:57:26;21.50;99.90
29501;DHT22;16450;50.288;10.966;2023-08-12T09:00:46;21.60;99.90
29501;DHT22;16450;50.288;10.966;2023-08-12T09:03:51;21.70;99.90
29501;DHT22;16450;50.288;10.966;2023-08-12T09:06:54;21.90;99.90
29501;DHT22;16450;50.288;10.966;2023-08-12T09:09:58;21.90;99.90
29501;DHT22;16450;50.288;10.966;2023-08-12T09:13:02;22.00;99.90
29501;DHT22;16450;50.288;10.966;2023-08-12T09:16:05;22.10;99.90
29501;DHT22;16450;50.288;10.966;2023-08-12T09:19:07;22.20;99.90
29501;DHT22;16450;50.288;10.966;2023-08-12T09:22:09;22.30;99.90
29501;DHT22;16450;50.288;10.966;2023-08-12T09:25:12;22.40;99.90
29501;DHT22;16450;50.288;10.966;2023-08-12T09:28:14;22.50;99.90
29501;DHT22;16450;50.288;10.966;2023-08-12T09:31:28;22.60;99.90
29501;DHT22;16450;50.288;10.966;2023-08-12T09:34:30;22.70;99.90
29501;DHT22;16450;50.288;10.966;2023-08-12T09:37:32;22.90;99.90
29501;DHT22;16450;50.288;10.966;2023-08-12T09:40:35;23.10;99.90
29501;DHT22;16450;50.288;10.966;2023-08-12T09:43:41;23.30;99.90
29501;DHT22;16450;50.288;10.966;2023-08-12T09:46:44;23.50;99.90
29501;DHT22;16450;50.288;10.966;2023-08-12T09:49:46;23.70;99.90
29501;DHT22;16450;50.288;10.966;2023-08-12T09:52:48;23.80;99.90
29501;DHT22;16450;50.288;10.966;2023-08-12T09:55:52;24.00;99.90
29501;DHT22;16450;50.288;10.966;2023-08-12T09:58:55;24.30;99.90
29501;DHT22;16450;50.288;10.966;2023-08-12T10:01:58;24.50;99.90
29501;DHT22;16450;50.288;10.966;2023-08-12T10:05:00;24.70;99.90
29501;DHT22;16450;50.288;10.966;2023-08-12T10:08:04;25.00;99.90
29501;DHT22;16450;50.288;10.966;2023-08-12T10:11:07;25.30;99.90
29501;DHT22;16450;50.288;10.966;2023-08-12T10:14:14;25.50;99.90
29501;DHT22;16450;50.288;10.966;2023-08-12T10:17:16;25.60;99.90
29501;DHT22;16450;50.288;10.966;2023-08-12T10:20:38;25.80;99.90
29501;DHT22;16450;50.288;10.966;2023-08-12T10:23:41;26.00;99.90
29501;DHT22;16450;50.288;10.966;2023-08-12T10:26:48;26.30;99.90
29501;DHT22;16450;50.288;10.966;2023-08-12T10:29:51;26.50;99.90
29501;DHT22;16450;50.288;10.966;2023-08-12T10:32:53;26.80;99.90
29501;DHT22;16450;50.288;10.966;2023-08-12T10:35:55;27.00;99.60
29501;DHT22;16450;50.288;10.966;2023-08-12T10:38:57;27.20;99.40
29501;DHT22;16450;50.288;10.966;2023-08-12T10:42:00;27.40;99.10
29501;DHT22;16450;50.288;10.966;2023-08-12T10:45:04;27.50;98.40
29501;DHT22;16450;50.288;10.966;2023-08-12T10:51:10;27.80;98.20
29501;DHT22;16450;50.288;10.966;2023-08-12T10:54:17;27.90;97.20
29501;DHT22;16450;50.288;10.966;2023-08-12T10:57:35;27.90;95.80
29501;DHT22;16450;50.288;10.966;2023-08-12T11:00:41;27.90;95.30
29501;DHT22;16450;50.288;10.966;2023-08-12T11:03:44;27.90;96.30
29501;DHT22;16450;50.288;10.966;2023-08-12T11:06:46;27.70;96.00
29501;DHT22;16450;50.288;10.966;2023-08-12T11:09:52;27.80;95.80
29501;DHT22;16450;50.288;10.966;2023-08-12T11:12:58;27.80;95.30
29501;DHT22;16450;50.288;10.966;2023-08-12T11:16:08;27.80;96.00
29501;DHT22;16450;50.288;10.966;2023-08-12T11:19:11;27.70;94.50
29501;DHT22;16450;50.288;10.966;2023-08-12T11:22:14;27.60;95.40
29501;DHT22;16450;50.288;10.966;2023-08-12T11:25:16;27.60;95.00
29501;DHT22;16450;50.288;10.966;2023-08-12T11:28:21;27.60;94.90
29501;DHT22;16450;50.288;10.966;2023-08-12T11:31:25;27.40;95.30
29501;DHT22;16450;50.288;10.966;2023-08-12T11:34:30;27.50;95.50
29501;DHT22;16450;50.288;10.966;2023-08-12T11:37:32;27.50;95.30
29501;DHT22;16450;50.288;10.966;2023-08-12T11:40:35;27.60;96.30
29501;DHT22;16450;50.288;10.966;2023-08-12T11:43:37;27.60;95.60
29501;DHT22;16450;50.288;10.966;2023-08-12T11:46:39;27.70;95.40
29501;DHT22;16450;50.288;10.966;2023-08-12T11:49:41;27.80;95.40
29501;DHT22;16450;50.288;10.966;2023-08-12T11:52:43;27.80;95.40
29501;DHT22;16450;50.288;10.966;2023-08-12T11:55:45;27.80;95.20
29501;DHT22;16450;50.288;10.966;2023-08-12T11:58:50;27.90;95.20
29501;DHT22;16450;50.288;10.966;2023-08-12T12:01:55;28.00;94.00
29501;DHT22;16450;50.288;10.966;2023-08-12T12:04:56;28.00;94.70
29501;DHT22;16450;50.288;10.966;2023-08-12T12:07:59;28.10;95.20
29501;DHT22;16450;50.288;10.966;2023-08-12T12:11:05;28.20;95.10
29501;DHT22;16450;50.288;10.966;2023-08-12T12:14:08;28.30;94.40
29501;DHT22;16450;50.288;10.966;2023-08-12T12:17:11;28.40;95.00
29501;DHT22;16450;50.288;10.966;2023-08-12T12:20:15;28.50;94.20
29501;DHT22;16450;50.288;10.966;2023-08-12T12:23:16;28.50;94.00
29501;DHT22;16450;50.288;10.966;2023-08-12T12:26:19;28.60;93.90
29501;DHT22;16450;50.288;10.966;2023-08-12T12:29:20;28.50;93.70
29501;DHT22;16450;50.288;10.966;2023-08-12T12:32:22;28.60;93.50
29501;DHT22;16450;50.288;10.966;2023-08-12T12:35:24;28.60;93.50
29501;DHT22;16450;50.288;10.966;2023-08-12T12:38:26;28.70;93.40
29501;DHT22;16450;50.288;10.966;2023-08-12T12:41:29;28.70;93.90
29501;DHT22;16450;50.288;10.966;2023-08-12T12:44:31;28.80;93.90
29501;DHT22;16450;50.288;10.966;2023-08-12T12:47:32;28.90;93.80
29501;DHT22;16450;50.288;10.966;2023-08-12T12:50:34;29.10;93.30
29501;DHT22;16450;50.288;10.966;2023-08-12T12:53:37;29.20;93.00
29501;DHT22;16450;50.288;10.966;2023-08-12T12:56:39;29.30;93.00
29501;DHT22;16450;50.288;10.966;2023-08-12T12:59:41;29.30;92.80
29501;DHT22;16450;50.288;10.966;2023-08-12T13:02:43;29.30;92.40
29501;DHT22;16450;50.288;10.966;2023-08-12T13:05:45;29.30;91.60
29501;DHT22;16450;50.288;10.966;2023-08-12T13:08:47;29.20;91.40
29501;DHT22;16450;50.288;10.966;2023-08-12T13:11:49;29.20;91.20
29501;DHT22;16450;50.288;10.966;2023-08-12T13:14:53;29.10;91.30
29501;DHT22;16450;50.288;10.966;2023-08-12T13:17:54;28.90;91.00
29501;DHT22;16450;50.288;10.966;2023-08-12T13:20:56;28.80;91.00
29501;DHT22;16450;50.288;10.966;2023-08-12T13:23:58;28.60;90.60
29501;DHT22;16450;50.288;10.966;2023-08-12T13:27:00;28.40;91.20
29501;DHT22;16450;50.288;10.966;2023-08-12T13:30:02;28.20;91.20
29501;DHT22;16450;50.288;10.966;2023-08-12T13:33:05;27.60;90.90
29501;DHT22;16450;50.288;10.966;2023-08-12T13:36:07;26.90;91.10
29501;DHT22;16450;50.288;10.966;2023-08-12T13:39:09;26.00;91.80
29501;DHT22;16450;50.288;10.966;2023-08-12T13:42:12;25.20;92.90
29501;DHT22;16450;50.288;10.966;2023-08-12T13:45:14;24.50;93.90
29501;DHT22;16450;50.288;10.966;2023-08-12T13:48:16;23.80;94.80
29501;DHT22;16450;50.288;10.966;2023-08-12T13:51:18;23.30;95.80
29501;DHT22;16450;50.288;10.966;2023-08-12T13:54:20;22.80;96.60
29501;DHT22;16450;50.288;10.966;2023-08-12T13:57:22;22.50;97.30
29501;DHT22;16450;50.288;10.966;2023-08-12T14:00:24;22.30;98.10
29501;DHT22;16450;50.288;10.966;2023-08-12T14:03:26;22.10;98.80
29501;DHT22;16450;50.288;10.966;2023-08-12T14:06:28;22.00;99.40
29501;DHT22;16450;50.288;10.966;2023-08-12T14:09:31;21.90;99.90
29501;DHT22;16450;50.288;10.966;2023-08-12T14:12:33;21.80;99.90
29501;DHT22;16450;50.288;10.966;2023-08-12T14:15:35;21.80;99.90
29501;DHT22;16450;50.288;10.966;2023-08-12T14:18:37;21.70;99.90
29501;DHT22;16450;50.288;10.966;2023-08-12T14:21:38;21.60;99.90
29501;DHT22;16450;50.288;10.966;2023-08-12T14:24:40;21.50;99.90
29501;DHT22;16450;50.288;10.966;2023-08-12T14:27:42;21.50;99.90
29501;DHT22;16450;50.288;10.966;2023-08-12T14:30:44;21.40;99.90
29501;DHT22;16450;50.288;10.966;2023-08-12T14:33:46;21.30;99.90
29501;DHT22;16450;50.288;10.966;2023-08-12T14:36:48;21.30;99.90
29501;DHT22;16450;50.288;10.966;2023-08-12T14:39:50;21.30;99.90
29501;DHT22;16450;50.288;10.966;2023-08-12T14:42:52;21.30;99.90
29501;DHT22;16450;50.288;10.966;2023-08-12T14:45:54;21.30;99.90
29501;DHT22;16450;50.288;10.966;2023-08-12T14:48:55;21.30;99.90
29501;DHT22;16450;50.288;10.966;2023-08-12T14:51:58;21.30;99.90
29501;DHT22;16450;50.288;10.966;2023-08-12T14:55:00;21.30;99.90
29501;DHT22;16450;50.288;10.966;2023-08-12T14:58:02;21.30;99.90
29501;DHT22;16450;50.288;10.966;2023-08-12T15:01:04;21.40;99.90
29501;DHT22;16450;50.288;10.966;2023-08-12T15:04:07;21.60;99.90
29501;DHT22;16450;50.288;10.966;2023-08-12T15:07:09;21.70;99.90
29501;DHT22;16450;50.288;10.966;2023-08-12T15:10:12;21.90;99.90
29501;DHT22;16450;50.288;10.966;2023-08-12T15:13:14;22.00;99.90
29501;DHT22;16450;50.288;10.966;2023-08-12T15:16:16;22.20;99.90
29501;DHT22;16450;50.288;10.966;2023-08-12T15:19:18;22.40;99.90
29501;DHT22;16450;50.288;10.966;2023-08-12T15:22:20;22.50;99.90
29501;DHT22;16450;50.288;10.966;2023-08-12T15:25:22;22.60;99.90
29501;DHT22;16450;50.288;10.966;2023-08-12T15:28:24;22.70;99.90
29501;DHT22;16450;50.288;10.966;2023-08-12T15:31:26;22.70;99.90
29501;DHT22;16450;50.288;10.966;2023-08-12T15:34:28;22.80;99.90
29501;DHT22;16450;50.288;10.966;2023-08-12T15:37:30;22.80;99.90
29501;DHT22;16450;50.288;10.966;2023-08-12T15:40:32;22.80;99.90
29501;DHT22;16450;50.288;10.966;2023-08-12T15:43:34;22.80;99.90
29501;DHT22;16450;50.288;10.966;2023-08-12T15:46:36;22.80;99.90
29501;DHT22;16450;50.288;10.966;2023-08-12T15:49:38;22.90;99.90
29501;DHT22;16450;50.288;10.966;2023-08-12T15:52:40;22.90;99.90
29501;DHT22;16450;50.288;10.966;2023-08-12T15:55:42;23.00;99.90
29501;DHT22;16450;50.288;10.966;2023-08-12T15:58:44;23.10;99.90
29501;DHT22;16450;50.288;10.966;2023-08-12T16:01:46;23.20;99.90
29501;DHT22;16450;50.288;10.966;2023-08-12T16:04:48;23.20;99.90
29501;DHT22;16450;50.288;10.966;2023-08-12T16:07:50;23.30;99.90
29501;DHT22;16450;50.288;10.966;2023-08-12T16:10:52;23.30;99.90
29501;DHT22;16450;50.288;10.966;2023-08-12T16:13:54;23.30;99.90
29501;DHT22;16450;50.288;10.966;2023-08-12T16:16:56;23.40;99.90
29501;DHT22;16450;50.288;10.966;2023-08-12T16:19:58;23.50;99.90
29501;DHT22;16450;50.288;10.966;2023-08-12T16:23:00;23.60;99.90
29501;DHT22;16450;50.288;10.966;2023-08-12T16:26:02;23.60;99.90
29501;DHT22;16450;50.288;10.966;2023-08-12T16:29:04;23.70;99.90
29501;DHT22;16450;50.288;10.966;2023-08-12T16:32:06;23.70;99.90
29501;DHT22;16450;50.288;10.966;2023-08-12T16:35:08;23.70;99.90
29501;DHT22;16450;50.288;10.966;2023-08-12T16:38:10;23.80;99.90
29501;DHT22;16450;50.288;10.966;2023-08-12T16:41:12;23.90;99.90
29501;DHT22;16450;50.288;10.966;2023-08-12T16:44:15;23.90;99.90
29501;DHT22;16450;50.288;10.966;2023-08-12T16:47:16;23.80;99.90
29501;DHT22;16450;50.288;10.966;2023-08-12T16:50:18;23.80;99.90
29501;DHT22;16450;50.288;10.966;2023-08-12T16:53:20;23.80;99.90
29501;DHT22;16450;50.288;10.966;2023-08-12T16:56:22;23.70;99.90
29501;DHT22;16450;50.288;10.966;2023-08-12T16:59:25;23.60;99.90
29501;DHT22;16450;50.288;10.966;2023-08-12T17:02:27;23.50;99.90
29501;DHT22;16450;50.288;10.966;2023-08-12T17:05:29;23.40;99.90
29501;DHT22;16450;50.288;10.966;2023-08-12T17:08:31;23.30;99.90
29501;DHT22;16450;50.288;10.966;2023-08-12T17:11:34;23.20;99.90
29501;DHT22;16450;50.288;10.966;2023-08-12T17:14:36;23.10;99.90
29501;DHT22;16450;50.288;10.966;2023-08-12T17:17:38;23.10;99.90
29501;DHT22;16450;50.288;10.966;2023-08-12T17:20:41;22.90;99.90
29501;DHT22;16450;50.288;10.966;2023-08-12T17:23:43;22.90;99.90
29501;DHT22;16450;50.288;10.966;2023-08-12T17:26:45;22.80;99.90
29501;DHT22;16450;50.288;10.966;2023-08-12T17:29:47;22.70;99.90
29501;DHT22;16450;50.288;10.966;2023-08-12T17:32:49;22.70;99.90
29501;DHT22;16450;50.288;10.966;2023-08-12T17:35:51;22.70;99.90
29501;DHT22;16450;50.288;10.966;2023-08-12T17:38:53;22.50;99.90
29501;DHT22;16450;50.288;10.966;2023-08-12T17:41:55;22.60;99.90
29501;DHT22;16450;50.288;10.966;2023-08-12T17:44:57;22.50;99.90
29501;DHT22;16450;50.288;10.966;2023-08-12T17:48:00;22.50;99.90
29501;DHT22;16450;50.288;10.966;2023-08-12T17:51:04;22.50;99.90
29501;DHT22;16450;50.288;10.966;2023-08-12T17:54:09;22.60;99.90
29501;DHT22;16450;50.288;10.966;2023-08-12T17:57:11;22.60;99.90
29501;DHT22;16450;50.288;10.966;2023-08-12T18:00:14;22.60;99.90
29501;DHT22;16450;50.288;10.966;2023-08-12T18:03:16;22.50;99.90
29501;DHT22;16450;50.288;10.966;2023-08-12T18:06:19;22.60;99.90
29501;DHT22;16450;50.288;10.966;2023-08-12T18:09:20;22.50;99.90
29501;DHT22;16450;50.288;10.966;2023-08-12T18:12:22;22.50;99.90
29501;DHT22;16450;50.288;10.966;2023-08-12T18:15:25;22.50;99.90
29501;DHT22;16450;50.288;10.966;2023-08-12T18:18:27;22.50;99.90
29501;DHT22;16450;50.288;10.966;2023-08-12T18:21:28;22.50;99.90
29501;DHT22;16450;50.288;10.966;2023-08-12T18:24:31;22.40;99.90
29501;DHT22;16450;50.288;10.966;2023-08-12T18:27:34;22.40;99.90
29501;DHT22;16450;50.288;10.966;2023-08-12T18:30:36;22.30;99.90
29501;DHT22;16450;50.288;10.966;2023-08-12T18:33:38;22.30;99.90
29501;DHT22;16450;50.288;10.966;2023-08-12T18:36:40;22.30;99.90
29501;DHT22;16450;50.288;10.966;2023-08-12T18:39:42;22.20;99.90
29501;DHT22;16450;50.288;10.966;2023-08-12T18:42:44;22.20;99.90
29501;DHT22;16450;50.288;10.966;2023-08-12T18:45:46;22.10;99.90
29501;DHT22;16450;50.288;10.966;2023-08-12T18:48:48;22.10;99.90
29501;DHT22;16450;50.288;10.966;2023-08-12T18:51:50;22.10;99.90
29501;DHT22;16450;50.288;10.966;2023-08-12T18:54:52;22.00;99.90
29501;DHT22;16450;50.288;10.966;2023-08-12T18:57:54;22.00;99.90